sensor_id;sensor_type;location;lat;lon;timestamp;P1;durP1;ratioP1;P2;durP2;ratioP2
5454;SDS011;2750;49.050;9.250;2022-09-30T00:00:34;20.73;;;14.53;;
5454;SDS011;2750;49.050;9.250;2022-09-30T00:05:36;12.43;;;9.47;;
5454;SDS011;2750;49.050;9.250;2022-09-30T00:10:37;14.23;;;10.77;;
5454;SDS011;2750;49.050;9.250;2022-09-30T00:15:40;10.47;;;8.63;;
5454;SDS011;2750;49.050;9.250;2022-09-30T00:20:46;14.97;;;9.93;;
5454;SDS011;2750;49.050;9.250;2022-09-30T00:25:48;15.20;;;10.43;;
5454;SDS011;2750;49.050;9.250;2022-09-30T00:30:52;12.60;;;10.37;;
5454;SDS011;2750;49.050;9.250;2022-09-30T00:35:54;25.53;;;17.37;;
5454;SDS011;2750;49.050;9.250;2022-09-30T00:40:55;15.00;;;10.00;;
5454;SDS011;2750;49.050;9.250;2022-09-30T00:46:00;21.60;;;14.50;;
5454;SDS011;2750;49.050;9.250;2022-09-30T00:51:01;16.77;;;11.80;;
5454;SDS011;2750;49.050;9.250;2022-09-30T00:56:06;17.70;;;13.40;;
5454;SDS011;2750;49.050;9.250;2022-09-30T01:01:13;12.23;;;9.63;;
5454;SDS011;2750;49.050;9.250;2022-09-30T01:06:15;16.03;;;9.97;;
5454;SDS011;2750;49.050;9.250;2022-09-30T01:11:17;17.27;;;11.90;;
5454;SDS011;2750;49.050;9.250;2022-09-30T01:16:28;14.37;;;11.63;;
5454;SDS011;2750;49.050;9.250;2022-09-30T01:21:49;15.97;;;12.33;;
5454;SDS011;2750;49.050;9.250;2022-09-30T01:27:17;13.77;;;10.97;;
5454;SDS011;2750;49.050;9.250;2022-09-30T01:32:39;17.37;;;10.90;;
5454;SDS011;2750;49.050;9.250;2022-09-30T01:37:57;13.63;;;11.57;;
5454;SDS011;2750;49.050;9.250;2022-09-30T01:43:06;14.13;;;10.47;;
5454;SDS011;2750;49.050;9.250;2022-09-30T01:48:15;16.80;;;11.83;;
5454;SDS011;2750;49.050;9.250;2022-09-30T01:53:23;20.13;;;13.53;;
5454;SDS011;2750;49.050;9.250;2022-09-30T01:58:34;19.67;;;14.73;;
5454;SDS011;2750;49.050;9.250;2022-09-30T02:03:42;15.97;;;12.33;;
5454;SDS011;2750;49.050;9.250;2022-09-30T02:08:49;14.93;;;12.03;;
5454;SDS011;2750;49.050;9.250;2022-09-30T02:13:57;12.07;;;10.57;;
5454;SDS011;2750;49.050;9.250;2022-09-30T02:19:07;15.93;;;12.67;;
5454;SDS011;2750;49.050;9.250;2022-09-30T02:24:14;17.90;;;11.93;;
5454;SDS011;2750;49.050;9.250;2022-09-30T02:29:20;17.23;;;12.20;;
5454;SDS011;2750;49.050;9.250;2022-09-30T02:34:26;17.30;;;12.43;;
5454;SDS011;2750;49.050;9.250;2022-09-30T02:39:35;19.60;;;12.87;;
5454;SDS011;2750;49.050;9.250;2022-09-30T02:44:42;18.07;;;12.50;;
5454;SDS011;2750;49.050;9.250;2022-09-30T02:49:46;19.60;;;12.23;;
5454;SDS011;2750;49.050;9.250;2022-09-30T02:54:58;16.13;;;12.83;;
5454;SDS011;2750;49.050;9.250;2022-09-30T03:00:06;16.13;;;12.50;;
5454;SDS011;2750;49.050;9.250;2022-09-30T03:05:10;16.57;;;11.10;;
5454;SDS011;2750;49.050;9.250;2022-09-30T03:10:12;17.97;;;11.63;;
5454;SDS011;2750;49.050;9.250;2022-09-30T03:15:21;16.77;;;11.10;;
5454;SDS011;2750;49.050;9.250;2022-09-30T03:20:40;12.20;;;10.73;;
5454;SDS011;2750;49.050;9.250;2022-09-30T03:25:53;19.17;;;10.97;;
5454;SDS011;2750;49.050;9.250;2022-09-30T03:31:04;16.93;;;13.10;;
5454;SDS011;2750;49.050;9.250;2022-09-30T03:36:15;17.23;;;11.47;;
5454;SDS011;2750;49.050;9.250;2022-09-30T03:41:26;13.97;;;10.70;;
5454;SDS011;2750;49.050;9.250;2022-09-30T03:46:32;14.43;;;11.30;;
5454;SDS011;2750;49.050;9.250;2022-09-30T03:51:37;14.50;;;11.50;;
5454;SDS011;2750;49.050;9.250;2022-09-30T03:56:41;18.07;;;14.10;;
5454;SDS011;2750;49.050;9.250;2022-09-30T04:01:43;19.57;;;13.70;;
5454;SDS011;2750;49.050;9.250;2022-09-30T04:06:46;15.13;;;10.50;;
5454;SDS011;2750;49.050;9.250;2022-09-30T04:11:47;18.87;;;12.60;;
5454;SDS011;2750;49.050;9.250;2022-09-30T04:16:49;19.13;;;13.53;;
5454;SDS011;2750;49.050;9.250;2022-09-30T04:21:52;18.50;;;13.03;;
5454;SDS011;2750;49.050;9.250;2022-09-30T04:26:54;17.00;;;12.07;;
5454;SDS011;2750;49.050;9.250;2022-09-30T04:31:55;19.00;;;13.30;;
5454;SDS011;2750;49.050;9.250;2022-09-30T04:36:58;16.43;;;12.47;;
5454;SDS011;2750;49.050;9.250;2022-09-30T04:42:00;16.10;;;13.70;;
5454;SDS011;2750;49.050;9.250;2022-09-30T04:47:02;14.67;;;11.17;;
5454;SDS011;2750;49.050;9.250;2022-09-30T04:52:04;17.43;;;12.03;;
5454;SDS011;2750;49.050;9.250;2022-09-30T04:57:06;17.27;;;12.57;;
5454;SDS011;2750;49.050;9.250;2022-09-30T05:02:08;20.23;;;14.10;;
5454;SDS011;2750;49.050;9.250;2022-09-30T05:07:13;17.50;;;13.37;;
5454;SDS011;2750;49.050;9.250;2022-09-30T05:12:14;18.43;;;12.87;;
5454;SDS011;2750;49.050;9.250;2022-09-30T05:17:16;15.23;;;11.73;;
5454;SDS011;2750;49.050;9.250;2022-09-30T05:22:20;19.03;;;13.10;;
5454;SDS011;2750;49.050;9.250;2022-09-30T05:27:22;21.13;;;13.13;;
5454;SDS011;2750;49.050;9.250;2022-09-30T05:32:24;19.07;;;12.43;;
5454;SDS011;2750;49.050;9.250;2022-09-30T05:37:27;17.00;;;13.03;;
5454;SDS011;2750;49.050;9.250;2022-09-30T05:42:29;18.03;;;11.47;;
5454;SDS011;2750;49.050;9.250;2022-09-30T05:47:31;21.53;;;14.80;;
5454;SDS011;2750;49.050;9.250;2022-09-30T05:52:34;27.90;;;19.00;;
5454;SDS011;2750;49.050;9.250;2022-09-30T05:57:36;28.73;;;17.40;;
5454;SDS011;2750;49.050;9.250;2022-09-30T06:02:38;22.00;;;15.33;;
5454;SDS011;2750;49.050;9.250;2022-09-30T06:07:41;13.67;;;10.17;;
5454;SDS011;2750;49.050;9.250;2022-09-30T06:12:43;21.17;;;15.33;;
5454;SDS011;2750;49.050;9.250;2022-09-30T06:17:45;22.07;;;14.83;;
5454;SDS011;2750;49.050;9.250;2022-09-30T06:22:53;17.20;;;13.73;;
5454;SDS011;2750;49.050;9.250;2022-09-30T06:27:55;20.53;;;13.97;;
5454;SDS011;2750;49.050;9.250;2022-09-30T06:32:57;13.13;;;10.30;;
5454;SDS011;2750;49.050;9.250;2022-09-30T06:38:01;20.43;;;13.83;;
5454;SDS011;2750;49.050;9.250;2022-09-30T06:43:03;18.00;;;14.83;;
5454;SDS011;2750;49.050;9.250;2022-09-30T06:48:06;19.57;;;14.20;;
5454;SDS011;2750;49.050;9.250;2022-09-30T06:53:10;18.23;;;13.17;;
5454;SDS011;2750;49.050;9.250;2022-09-30T06:58:13;12.20;;;10.90;;
5454;SDS011;2750;49.050;9.250;2022-09-30T07:03:19;8.57;;;6.53;;
5454;SDS011;2750;49.050;9.250;2022-09-30T07:08:26;7.33;;;6.07;;
5454;SDS011;2750;49.050;9.250;2022-09-30T07:13:30;6.93;;;4.83;;
5454;SDS011;2750;49.050;9.250;2022-09-30T07:18:33;6.60;;;5.37;;
5454;SDS011;2750;49.050;9.250;2022-09-30T07:23:36;6.30;;;5.70;;
5454;SDS011;2750;49.050;9.250;2022-09-30T07:28:38;6.20;;;5.57;;
5454;SDS011;2750;49.050;9.250;2022-09-30T07:33:40;7.37;;;6.67;;
5454;SDS011;2750;49.050;9.250;2022-09-30T07:38:43;7.80;;;6.37;;
5454;SDS011;2750;49.050;9.250;2022-09-30T07:43:46;7.97;;;7.27;;
5454;SDS011;2750;49.050;9.250;2022-09-30T07:48:47;9.00;;;8.20;;
5454;SDS011;2750;49.050;9.250;2022-09-30T07:53:53;10.30;;;9.23;;
5454;SDS011;2750;49.050;9.250;2022-09-30T07:58:56;11.67;;;10.47;;
5454;SDS011;2750;49.050;9.250;2022-09-30T08:04:00;11.47;;;10.37;;
5454;SDS011;2750;49.050;9.250;2022-09-30T08:09:05;11.40;;;10.30;;
5454;SDS011;2750;49.050;9.250;2022-09-30T08:14:11;10.50;;;9.40;;
5454;SDS011;2750;49.050;9.250;2022-09-30T08:19:15;9.80;;;8.90;;
5454;SDS011;2750;49.050;9.250;2022-09-30T08:24:19;10.07;;;8.93;;
5454;SDS011;2750;49.050;9.250;2022-09-30T08:29:22;11.40;;;8.90;;
5454;SDS011;2750;49.050;9.250;2022-09-30T08:34:23;9.93;;;8.10;;
5454;SDS011;2750;49.050;9.250;2022-09-30T08:39:26;8.67;;;7.73;;
5454;SDS011;2750;49.050;9.250;2022-09-30T08:44:32;8.70;;;7.90;;
5454;SDS011;2750;49.050;9.250;2022-09-30T08:49:44;10.10;;;9.20;;
5454;SDS011;2750;49.050;9.250;2022-09-30T08:54:55;9.90;;;9.00;;
5454;SDS011;2750;49.050;9.250;2022-09-30T08:59:59;9.93;;;9.13;;
5454;SDS011;2750;49.050;9.250;2022-09-30T09:05:06;10.20;;;9.20;;
5454;SDS011;2750;49.050;9.250;2022-09-30T09:10:21;9.30;;;8.40;;
5454;SDS011;2750;49.050;9.250;2022-09-30T09:15:32;9.83;;;8.93;;
5454;SDS011;2750;49.050;9.250;2022-09-30T09:20:52;8.40;;;7.70;;
5454;SDS011;2750;49.050;9.250;2022-09-30T09:25:56;7.93;;;7.13;;
5454;SDS011;2750;49.050;9.250;2022-09-30T09:30:59;8.20;;;7.47;;
5454;SDS011;2750;49.050;9.250;2022-09-30T09:36:04;7.65;;;6.95;;
5454;SDS011;2750;49.050;9.250;2022-09-30T09:41:19;6.93;;;6.30;;
5454;SDS011;2750;49.050;9.250;2022-09-30T09:46:30;8.70;;;8.00;;
5454;SDS011;2750;49.050;9.250;2022-09-30T09:51:38;8.93;;;8.03;;
5454;SDS011;2750;49.050;9.250;2022-09-30T09:56:47;8.43;;;7.60;;
5454;SDS011;2750;49.050;9.250;2022-09-30T10:01:52;9.20;;;7.37;;
5454;SDS011;2750;49.050;9.250;2022-09-30T10:06:55;9.57;;;6.87;;
5454;SDS011;2750;49.050;9.250;2022-09-30T10:12:21;7.47;;;6.77;;
5454;SDS011;2750;49.050;9.250;2022-09-30T10:17:28;7.00;;;6.32;;
5454;SDS011;2750;49.050;9.250;2022-09-30T10:22:32;9.17;;;8.33;;
5454;SDS011;2750;49.050;9.250;2022-09-30T10:27:36;10.20;;;9.23;;
5454;SDS011;2750;49.050;9.250;2022-09-30T10:32:38;11.53;;;10.37;;
5454;SDS011;2750;49.050;9.250;2022-09-30T10:37:40;14.93;;;11.77;;
5454;SDS011;2750;49.050;9.250;2022-09-30T10:42:52;13.37;;;11.97;;
5454;SDS011;2750;49.050;9.250;2022-09-30T10:47:54;10.93;;;9.90;;
5454;SDS011;2750;49.050;9.250;2022-09-30T10:52:58;13.03;;;10.57;;
5454;SDS011;2750;49.050;9.250;2022-09-30T11:03:31;11.43;;;9.70;;
5454;SDS011;2750;49.050;9.250;2022-09-30T11:08:40;14.10;;;11.30;;
5454;SDS011;2750;49.050;9.250;2022-09-30T11:13:49;12.50;;;10.53;;
5454;SDS011;2750;49.050;9.250;2022-09-30T11:18:58;11.20;;;9.97;;
5454;SDS011;2750;49.050;9.250;2022-09-30T11:24:05;12.67;;;10.30;;
5454;SDS011;2750;49.050;9.250;2022-09-30T11:29:29;10.60;;;9.60;;
5454;SDS011;2750;49.050;9.250;2022-09-30T11:34:47;11.17;;;9.00;;
5454;SDS011;2750;49.050;9.250;2022-09-30T11:40:11;10.87;;;9.30;;
5454;SDS011;2750;49.050;9.250;2022-09-30T11:45:29;8.80;;;7.93;;
5454;SDS011;2750;49.050;9.250;2022-09-30T11:50:42;11.30;;;8.17;;
5454;SDS011;2750;49.050;9.250;2022-09-30T11:55:59;12.60;;;7.63;;
5454;SDS011;2750;49.050;9.250;2022-09-30T12:01:10;8.33;;;7.63;;
5454;SDS011;2750;49.050;9.250;2022-09-30T12:06:23;8.93;;;8.07;;
5454;SDS011;2750;49.050;9.250;2022-09-30T12:11:31;7.20;;;6.60;;
5454;SDS011;2750;49.050;9.250;2022-09-30T12:16:37;6.57;;;5.97;;
5454;SDS011;2750;49.050;9.250;2022-09-30T12:21:43;8.33;;;6.87;;
5454;SDS011;2750;49.050;9.250;2022-09-30T12:26:52;6.83;;;6.23;;
5454;SDS011;2750;49.050;9.250;2022-09-30T12:32:04;6.47;;;5.87;;
5454;SDS011;2750;49.050;9.250;2022-09-30T12:37:26;7.33;;;5.60;;
5454;SDS011;2750;49.050;9.250;2022-09-30T12:42:44;6.07;;;5.37;;
5454;SDS011;2750;49.050;9.250;2022-09-30T12:47:59;5.67;;;4.47;;
5454;SDS011;2750;49.050;9.250;2022-09-30T12:53:11;7.43;;;4.30;;
5454;SDS011;2750;49.050;9.250;2022-09-30T12:58:19;5.33;;;4.43;;
5454;SDS011;2750;49.050;9.250;2022-09-30T13:03:23;4.83;;;3.80;;
5454;SDS011;2750;49.050;9.250;2022-09-30T13:14:22;6.13;;;4.33;;
5454;SDS011;2750;49.050;9.250;2022-09-30T13:19:32;5.17;;;4.67;;
5454;SDS011;2750;49.050;9.250;2022-09-30T13:35:33;5.70;;;4.40;;
5454;SDS011;2750;49.050;9.250;2022-09-30T13:40:39;4.60;;;4.17;;
5454;SDS011;2750;49.050;9.250;2022-09-30T13:45:43;4.90;;;4.13;;
5454;SDS011;2750;49.050;9.250;2022-09-30T13:50:48;7.17;;;3.43;;
5454;SDS011;2750;49.050;9.250;2022-09-30T13:55:53;4.40;;;2.60;;
5454;SDS011;2750;49.050;9.250;2022-09-30T14:00:57;3.00;;;2.70;;
5454;SDS011;2750;49.050;9.250;2022-09-30T14:06:07;3.87;;;3.23;;
5454;SDS011;2750;49.050;9.250;2022-09-30T14:11:28;4.37;;;2.97;;
5454;SDS011;2750;49.050;9.250;2022-09-30T14:17:01;4.10;;;2.80;;
5454;SDS011;2750;49.050;9.250;2022-09-30T14:22:14;3.50;;;2.80;;
5454;SDS011;2750;49.050;9.250;2022-09-30T14:27:26;2.73;;;2.53;;
5454;SDS011;2750;49.050;9.250;2022-09-30T14:32:35;3.00;;;2.50;;
5454;SDS011;2750;49.050;9.250;2022-09-30T14:37:46;4.13;;;2.30;;
5454;SDS011;2750;49.050;9.250;2022-09-30T14:42:56;3.63;;;2.60;;
5454;SDS011;2750;49.050;9.250;2022-09-30T14:48:04;4.37;;;2.60;;
5454;SDS011;2750;49.050;9.250;2022-09-30T14:53:21;3.97;;;2.60;;
5454;SDS011;2750;49.050;9.250;2022-09-30T14:58:27;3.33;;;2.60;;
5454;SDS011;2750;49.050;9.250;2022-09-30T15:03:31;2.88;;;2.33;;
5454;SDS011;2750;49.050;9.250;2022-09-30T15:08:35;3.47;;;2.63;;
5454;SDS011;2750;49.050;9.250;2022-09-30T15:13:38;2.83;;;2.40;;
5454;SDS011;2750;49.050;9.250;2022-09-30T15:18:42;2.90;;;2.35;;
5454;SDS011;2750;49.050;9.250;2022-09-30T15:23:45;3.33;;;2.60;;
5454;SDS011;2750;49.050;9.250;2022-09-30T15:28:51;3.13;;;2.10;;
5454;SDS011;2750;49.050;9.250;2022-09-30T15:34:03;2.50;;;2.15;;
5454;SDS011;2750;49.050;9.250;2022-09-30T15:39:15;4.00;;;2.30;;
5454;SDS011;2750;49.050;9.250;2022-09-30T15:44:35;2.97;;;2.55;;
5454;SDS011;2750;49.050;9.250;2022-09-30T15:49:45;2.60;;;2.40;;
5454;SDS011;2750;49.050;9.250;2022-09-30T15:54:48;4.55;;;2.28;;
5454;SDS011;2750;49.050;9.250;2022-09-30T15:59:58;6.85;;;5.07;;
5454;SDS011;2750;49.050;9.250;2022-09-30T16:05:01;3.03;;;2.83;;
5454;SDS011;2750;49.050;9.250;2022-09-30T16:10:04;4.22;;;2.30;;
5454;SDS011;2750;49.050;9.250;2022-09-30T16:15:10;4.05;;;2.25;;
5454;SDS011;2750;49.050;9.250;2022-09-30T16:20:20;4.00;;;2.95;;
5454;SDS011;2750;49.050;9.250;2022-09-30T16:25:25;3.50;;;3.13;;
5454;SDS011;2750;49.050;9.250;2022-09-30T16:30:31;4.00;;;2.90;;
5454;SDS011;2750;49.050;9.250;2022-09-30T16:35:33;2.30;;;2.03;;
5454;SDS011;2750;49.050;9.250;2022-09-30T16:40:35;4.17;;;2.90;;
5454;SDS011;2750;49.050;9.250;2022-09-30T16:45:38;2.70;;;2.50;;
5454;SDS011;2750;49.050;9.250;2022-09-30T16:50:42;4.13;;;2.30;;
5454;SDS011;2750;49.050;9.250;2022-09-30T16:55:47;5.10;;;2.77;;
5454;SDS011;2750;49.050;9.250;2022-09-30T17:00:51;2.30;;;2.10;;
5454;SDS011;2750;49.050;9.250;2022-09-30T17:05:53;2.90;;;2.40;;
5454;SDS011;2750;49.050;9.250;2022-09-30T17:10:54;3.53;;;2.30;;
5454;SDS011;2750;49.050;9.250;2022-09-30T17:15:58;3.73;;;2.80;;
5454;SDS011;2750;49.050;9.250;2022-09-30T17:21:00;5.20;;;3.30;;
5454;SDS011;2750;49.050;9.250;2022-09-30T17:26:02;7.17;;;6.57;;
5454;SDS011;2750;49.050;9.250;2022-09-30T17:31:06;4.47;;;3.50;;
5454;SDS011;2750;49.050;9.250;2022-09-30T17:36:08;5.70;;;4.37;;
5454;SDS011;2750;49.050;9.250;2022-09-30T17:41:11;6.13;;;3.57;;
5454;SDS011;2750;49.050;9.250;2022-09-30T17:46:39;6.80;;;4.30;;
5454;SDS011;2750;49.050;9.250;2022-09-30T17:51:42;7.83;;;3.60;;
5454;SDS011;2750;49.050;9.250;2022-09-30T17:56:44;3.40;;;3.10;;
5454;SDS011;2750;49.050;9.250;2022-09-30T18:01:48;5.13;;;3.60;;
5454;SDS011;2750;49.050;9.250;2022-09-30T18:06:51;5.67;;;5.10;;
5454;SDS011;2750;49.050;9.250;2022-09-30T18:11:53;5.23;;;3.40;;
5454;SDS011;2750;49.050;9.250;2022-09-30T18:16:56;6.40;;;5.80;;
5454;SDS011;2750;49.050;9.250;2022-09-30T18:21:58;5.63;;;4.87;;
5454;SDS011;2750;49.050;9.250;2022-09-30T18:26:59;6.67;;;5.73;;
5454;SDS011;2750;49.050;9.250;2022-09-30T18:32:03;10.27;;;5.50;;
5454;SDS011;2750;49.050;9.250;2022-09-30T18:37:05;4.30;;;3.90;;
5454;SDS011;2750;49.050;9.250;2022-09-30T18:42:06;6.03;;;4.20;;
5454;SDS011;2750;49.050;9.250;2022-09-30T18:47:09;4.63;;;3.70;;
5454;SDS011;2750;49.050;9.250;2022-09-30T18:52:11;5.57;;;4.07;;
5454;SDS011;2750;49.050;9.250;2022-09-30T18:57:13;5.83;;;4.10;;
5454;SDS011;2750;49.050;9.250;2022-09-30T19:02:15;10.33;;;4.43;;
5454;SDS011;2750;49.050;9.250;2022-09-30T19:07:19;7.97;;;5.20;;
5454;SDS011;2750;49.050;9.250;2022-09-30T19:12:22;6.00;;;5.43;;
5454;SDS011;2750;49.050;9.250;2022-09-30T19:17:28;9.43;;;8.53;;
5454;SDS011;2750;49.050;9.250;2022-09-30T19:22:32;5.93;;;5.20;;
5454;SDS011;2750;49.050;9.250;2022-09-30T19:27:36;6.43;;;5.03;;
5454;SDS011;2750;49.050;9.250;2022-09-30T19:32:41;10.40;;;5.47;;
5454;SDS011;2750;49.050;9.250;2022-09-30T19:37:43;15.23;;;11.60;;
5454;SDS011;2750;49.050;9.250;2022-09-30T19:42:45;14.30;;;10.17;;
5454;SDS011;2750;49.050;9.250;2022-09-30T19:47:49;16.40;;;13.13;;
5454;SDS011;2750;49.050;9.250;2022-09-30T19:52:51;10.37;;;8.27;;
5454;SDS011;2750;49.050;9.250;2022-09-30T19:57:52;11.80;;;8.97;;
5454;SDS011;2750;49.050;9.250;2022-09-30T20:02:56;11.17;;;7.93;;
5454;SDS011;2750;49.050;9.250;2022-09-30T20:07:58;12.60;;;9.33;;
5454;SDS011;2750;49.050;9.250;2022-09-30T20:13:00;9.37;;;6.73;;
5454;SDS011;2750;49.050;9.250;2022-09-30T20:18:03;13.13;;;8.63;;
5454;SDS011;2750;49.050;9.250;2022-09-30T20:23:05;11.80;;;9.60;;
5454;SDS011;2750;49.050;9.250;2022-09-30T20:28:06;13.40;;;10.90;;
5454;SDS011;2750;49.050;9.250;2022-09-30T20:33:10;13.37;;;11.03;;
5454;SDS011;2750;49.050;9.250;2022-09-30T20:38:13;12.47;;;10.27;;
5454;SDS011;2750;49.050;9.250;2022-09-30T20:43:16;17.47;;;11.40;;
5454;SDS011;2750;49.050;9.250;2022-09-30T20:48:19;14.07;;;11.47;;
5454;SDS011;2750;49.050;9.250;2022-09-30T20:53:20;14.27;;;12.63;;
5454;SDS011;2750;49.050;9.250;2022-09-30T20:58:23;12.60;;;10.27;;
5454;SDS011;2750;49.050;9.250;2022-09-30T21:03:26;12.93;;;11.63;;
5454;SDS011;2750;49.050;9.250;2022-09-30T21:08:28;14.23;;;11.33;;
5454;SDS011;2750;49.050;9.250;2022-09-30T21:13:30;15.63;;;13.97;;
5454;SDS011;2750;49.050;9.250;2022-09-30T21:18:33;13.40;;;11.93;;
5454;SDS011;2750;49.050;9.250;2022-09-30T21:23:35;17.63;;;12.33;;
5454;SDS011;2750;49.050;9.250;2022-09-30T21:28:37;12.03;;;10.57;;
5454;SDS011;2750;49.050;9.250;2022-09-30T21:33:40;13.23;;;10.57;;
5454;SDS011;2750;49.050;9.250;2022-09-30T21:38:43;10.73;;;8.77;;
5454;SDS011;2750;49.050;9.250;2022-09-30T21:43:45;11.90;;;9.20;;
5454;SDS011;2750;49.050;9.250;2022-09-30T21:48:48;9.77;;;8.77;;
5454;SDS011;2750;49.050;9.250;2022-09-30T21:53:52;11.73;;;10.10;;
5454;SDS011;2750;49.050;9.250;2022-09-30T21:58:54;10.47;;;8.73;;
5454;SDS011;2750;49.050;9.250;2022-09-30T22:03:57;11.23;;;9.73;;
5454;SDS011;2750;49.050;9.250;2022-09-30T22:08:59;10.20;;;9.17;;
5454;SDS011;2750;49.050;9.250;2022-09-30T22:14:01;10.27;;;9.37;;
5454;SDS011;2750;49.050;9.250;2022-09-30T22:19:04;12.13;;;9.53;;
5454;SDS011;2750;49.050;9.250;2022-09-30T22:24:07;14.77;;;11.20;;
5454;SDS011;2750;49.050;9.250;2022-09-30T22:29:09;15.87;;;12.70;;
5454;SDS011;2750;49.050;9.250;2022-09-30T22:34:13;12.30;;;9.90;;
5454;SDS011;2750;49.050;9.250;2022-09-30T22:39:32;13.03;;;9.97;;
5454;SDS011;2750;49.050;9.250;2022-09-30T22:44:35;13.67;;;10.13;;
5454;SDS011;2750;49.050;9.250;2022-09-30T22:49:38;11.63;;;9.60;;
5454;SDS011;2750;49.050;9.250;2022-09-30T22:54:40;11.87;;;9.93;;
5454;SDS011;2750;49.050;9.250;2022-09-30T22:59:42;12.67;;;11.37;;
5454;SDS011;2750;49.050;9.250;2022-09-30T23:04:47;12.57;;;10.33;;
5454;SDS011;2750;49.050;9.250;2022-09-30T23:09:50;12.80;;;11.33;;
5454;SDS011;2750;49.050;9.250;2022-09-30T23:14:52;15.27;;;11.47;;
5454;SDS011;2750;49.050;9.250;2022-09-30T23:19:55;16.27;;;11.47;;
5454;SDS011;2750;49.050;9.250;2022-09-30T23:24:57;17.90;;;12.83;;
5454;SDS011;2750;49.050;9.250;2022-09-30T23:30:01;14.03;;;11.97;;
5454;SDS011;2750;49.050;9.250;2022-09-30T23:35:04;16.23;;;12.07;;
5454;SDS011;2750;49.050;9.250;2022-09-30T23:40:06;15.83;;;13.33;;
5454;SDS011;2750;49.050;9.250;2022-09-30T23:45:09;18.87;;;14.23;;
5454;SDS011;2750;49.050;9.250;2022-09-30T23:50:12;15.87;;;13.73;;
5454;SDS011;2750;49.050;9.250;2022-09-30T23:55:14;13.70;;;11.43;;
